Time;durP1;ratioP1;P1;durP2;ratioP2;P2;SDS_P1;SDS_P2;PMS_P1;PMS_P2;Temp;Humidity;BMP_temperature;BMP_pressure;BME280_temperature;BME280_humidity;BME280_pressure;Samples;Min_cycle;Max_cycle;Signal;HPM_P1;HPM_P2
2021/05/12 00:00:32;;;;;;;0.10;0.10;;;7.70;99.90;;;;;;5081763;28;20050;-88
2021/05/12 00:03:07;;;;;;;0.00;0.00;;;7.50;99.90;;;;;;5074267;28;20942;-89
2021/05/12 00:05:44;;;;;;;0.32;0.32;;;7.70;99.90;;;;;;5078544;28;20088;-89
2021/05/12 00:08:10;;;;;;;;;;;7.70;99.90;;;;;;5083068;28;20039;-90
2021/05/12 00:10:37;;;;;;;0.10;0.10;;;7.60;99.90;;;;;;5069491;28;19921;-89
2021/05/12 00:13:03;;;;;;;0.00;0.00;;;7.30;99.90;;;;;;5088591;28;20032;-91
2021/05/12 00:15:29;;;;;;;6.43;0.87;;;7.00;99.90;;;;;;5092198;28;20172;-91
2021/05/12 00:17:55;;;;;;;0.00;0.00;;;6.70;99.90;;;;;;5090236;28;20286;-90
2021/05/12 00:20:28;;;;;;;0.00;0.00;;;6.60;99.90;;;;;;5090538;28;20032;-90
2021/05/12 00:23:02;;;;;;;0.00;0.00;;;6.40;99.90;;;;;;5084957;28;20459;-90
2021/05/12 00:25:30;;;;;;;0.00;0.00;;;6.40;99.90;;;;;;5085041;28;20024;-90
2021/05/12 00:27:56;;;;;;;0.00;0.00;;;6.40;99.90;;;;;;5069944;28;20039;-90
2021/05/12 00:30:23;;;;;;;0.22;0.22;;;6.30;99.90;;;;;;5083399;28;20027;-90
2021/05/12 00:32:50;;;;;;;;;;;6.30;99.90;;;;;;5080363;28;20135;-90
2021/05/12 00:35:17;;;;;;;0.10;0.10;;;6.30;99.90;;;;;;5072571;28;19951;-90
2021/05/12 00:37:44;;;;;;;0.10;0.10;;;6.00;99.90;;;;;;5071971;28;20495;-90
2021/05/12 00:40:13;;;;;;;;;;;6.10;99.90;;;;;;5068046;28;20036;-89
2021/05/12 00:42:40;;;;;;;0.20;0.20;;;6.10;99.90;;;;;;5069923;28;19908;-90
2021/05/12 00:45:10;;;;;;;0.30;0.30;;;5.90;99.90;;;;;;5072171;28;20059;-90
2021/05/12 00:47:37;;;;;;;0.10;0.10;;;5.90;99.90;;;;;;5083198;28;20487;-90
2021/05/12 00:50:05;;;;;;;0.10;0.10;;;5.90;99.90;;;;;;5085962;28;20028;-91
2021/05/12 00:52:32;;;;;;;0.00;0.00;;;6.00;99.90;;;;;;5069825;28;20066;-90
2021/05/12 00:54:59;;;;;;;0.88;0.57;;;5.90;99.90;;;;;;5069340;28;20029;-89
2021/05/12 00:57:26;;;;;;;0.00;0.00;;;5.80;99.90;;;;;;5069479;28;20492;-90
2021/05/12 00:59:54;;;;;;;0.10;0.10;;;5.70;99.90;;;;;;5067805;28;20081;-90
2021/05/12 01:02:40;;;;;;;0.00;0.00;;;5.80;99.90;;;;;;5070286;28;20806;-90
2021/05/12 01:05:40;;;;;;;0.05;0.05;;;5.80;99.90;;;;;;5069133;28;20043;-88
2021/05/12 01:08:07;;;;;;;0.20;0.20;;;5.70;99.90;;;;;;5077637;28;20036;-91
2021/05/12 01:10:35;;;;;;;0.03;0.03;;;5.70;99.90;;;;;;5076063;28;20065;-91
2021/05/12 01:13:02;;;;;;;0.00;0.00;;;5.60;99.90;;;;;;5070074;28;20040;-90
2021/05/12 01:15:29;;;;;;;0.00;0.00;;;5.70;99.90;;;;;;5073604;28;20029;-91
2021/05/12 01:18:11;;;;;;;0.00;0.00;;;6.20;99.90;;;;;;5072124;28;20028;-92
2021/05/12 01:21:07;;;;;;;0.00;0.00;;;7.00;99.90;;;;;;5070684;28;20024;-89
2021/05/12 01:23:34;;;;;;;;;;;7.20;99.90;;;;;;5070270;28;20036;-91
2021/05/12 01:26:01;;;;;;;;;;;7.20;99.90;;;;;;5073974;28;19912;-90
2021/05/12 01:28:30;;;;;;;0.00;0.00;;;6.80;99.90;;;;;;5066878;28;19904;-91
2021/05/12 01:31:16;;;;;;;0.10;0.10;;;5.90;99.90;;;;;;5086858;28;20606;-89
2021/05/12 01:33:51;;;;;;;0.00;0.00;;;5.60;99.90;;;;;;5061414;28;20066;-89
2021/05/12 01:36:24;;;;;;;0.10;0.10;;;5.40;99.90;;;;;;5075989;28;20028;-89
2021/05/12 01:38:50;;;;;;;0.00;0.00;;;5.30;99.90;;;;;;5065717;28;20040;-89
2021/05/12 01:41:19;;;;;;;0.10;0.10;;;5.30;99.90;;;;;;5057696;28;20021;-89
2021/05/12 01:43:45;;;;;;;0.00;0.00;;;5.30;99.90;;;;;;5049383;28;20025;-89
2021/05/12 01:46:11;;;;;;;0.20;0.20;;;5.20;99.90;;;;;;5069340;28;20032;-90
2021/05/12 01:48:38;;;;;;;0.00;0.00;;;5.10;99.90;;;;;;5082380;28;20059;-90
2021/05/12 01:51:05;;;;;;;0.10;0.10;;;5.10;99.90;;;;;;5073484;28;20070;-90
2021/05/12 01:53:31;;;;;;;0.00;0.00;;;5.20;99.90;;;;;;5074362;28;20078;-89
2021/05/12 01:55:57;;;;;;;0.00;0.00;;;5.30;99.90;;;;;;5074980;28;20027;-91
2021/05/12 01:58:24;;;;;;;0.10;0.10;;;5.10;99.90;;;;;;5075193;28;20025;-91
2021/05/12 02:00:52;;;;;;;0.00;0.00;;;5.10;99.90;;;;;;5083724;28;20033;-91
2021/05/12 02:03:18;;;;;;;0.00;0.00;;;5.00;99.90;;;;;;5094647;28;20024;-94
2021/05/12 02:05:45;;;;;;;0.03;0.03;;;5.00;99.90;;;;;;5077385;28;20473;-91
2021/05/12 02:08:12;;;;;;;;;;;5.00;99.90;;;;;;5074221;28;20071;-91
2021/05/12 02:10:41;;;;;;;0.00;0.00;;;5.00;99.90;;;;;;5087602;28;19919;-91
2021/05/12 02:13:06;;;;;;;0.10;0.10;;;5.00;99.90;;;;;;5085005;28;20121;-92
2021/05/12 02:15:32;;;;;;;0.00;0.00;;;5.10;99.90;;;;;;5093943;28;20122;-93
2021/05/12 02:17:58;;;;;;;0.00;0.00;;;5.00;1.00;;;;;;5094320;28;20658;-92
2021/05/12 02:20:30;;;;;;;0.10;0.10;;;5.00;1.00;;;;;;5094612;28;20052;-93
2021/05/12 02:22:59;;;;;;;0.00;0.00;;;4.90;1.00;;;;;;5081638;28;20029;-92
2021/05/12 02:25:25;;;;;;;0.10;0.10;;;4.90;1.00;;;;;;5076915;28;20199;-91
2021/05/12 02:27:51;;;;;;;0.00;0.00;;;4.80;1.00;;;;;;5071905;28;20041;-91
2021/05/12 02:30:18;;;;;;;0.00;0.00;;;5.00;1.00;;;;;;5070297;28;20119;-89
2021/05/12 02:32:44;;;;;;;;;;;4.90;1.00;;;;;;5071863;28;20500;-89
2021/05/12 02:35:11;;;;;;;0.00;0.00;;;4.80;1.00;;;;;;5083194;28;19926;-89
2021/05/12 02:37:38;;;;;;;0.03;0.03;;;5.00;1.00;;;;;;5075756;28;20062;-88
2021/05/12 02:40:06;;;;;;;0.10;0.10;;;4.90;13.80;;;;;;5069915;28;20029;-89
2021/05/12 02:42:32;;;;;;;0.10;0.10;;;4.90;3.60;;;;;;5071998;28;20052;-90
2021/05/12 02:44:58;;;;;;;0.03;0.03;;;4.90;3.20;;;;;;5070258;28;20051;-89
2021/05/12 02:47:35;;;;;;;0.10;0.10;;;4.80;12.20;;;;;;5078695;28;20506;-89
2021/05/12 02:50:02;;;;;;;0.10;0.10;;;4.80;15.50;;;;;;5087694;28;20032;-91
2021/05/12 02:52:28;;;;;;;0.00;0.00;;;5.00;40.30;;;;;;5080093;28;20024;-91
2021/05/12 02:54:54;;;;;;;0.00;0.00;;;5.00;68.10;;;;;;5094312;28;20028;-91
2021/05/12 02:57:22;;;;;;;0.00;0.00;;;4.90;49.00;;;;;;5092407;28;20510;-91
2021/05/12 02:59:48;;;;;;;0.00;0.00;;;4.90;43.40;;;;;;5089872;28;20365;-90
2021/05/12 03:02:14;;;;;;;0.00;0.00;;;4.90;59.60;;;;;;5093560;28;20032;-90
2021/05/12 03:04:40;;;;;;;0.00;0.00;;;5.00;83.30;;;;;;5093151;28;20024;-92
2021/05/12 03:07:06;;;;;;;0.10;0.10;;;5.00;99.90;;;;;;5095273;28;20077;-92
2021/05/12 03:09:31;;;;;;;0.00;0.00;;;5.00;99.90;;;;;;5093669;28;20043;-92
2021/05/12 03:11:57;;;;;;;0.00;0.00;;;5.00;99.90;;;;;;5090334;28;20060;-93
2021/05/12 03:14:23;;;;;;;0.00;0.00;;;5.00;99.90;;;;;;5093323;28;20050;-91
2021/05/12 03:16:49;;;;;;;0.00;0.00;;;5.10;99.90;;;;;;5093719;28;20024;-92
2021/05/12 03:19:26;;;;;;;0.00;0.00;;;5.10;99.90;;;;;;5093839;28;20104;-91
2021/05/12 03:22:21;;;;;;;;;;;;;;;;;;;;;
2021/05/12 03:24:47;;;;;;;0.60;0.30;;;5.00;1.00;;;;;;5066529;28;20027;-91
2021/05/12 03:27:12;;;;;;;0.20;0.20;;;5.10;1.00;;;;;;5072728;28;20115;-90
2021/05/12 03:29:38;;;;;;;0.00;0.00;;;5.10;75.30;;;;;;5071128;28;20120;-90
2021/05/12 03:32:04;;;;;;;0.00;0.00;;;5.10;98.80;;;;;;5065886;28;20035;-90
2021/05/12 03:34:30;;;;;;;0.00;0.00;;;5.20;99.90;;;;;;5082012;28;20055;-90
2021/05/12 03:36:56;;;;;;;0.10;0.10;;;5.30;99.90;;;;;;5085498;28;20028;-91
2021/05/12 03:39:22;;;;;;;0.00;0.00;;;5.20;99.90;;;;;;5088983;28;20476;-90
2021/05/12 03:41:47;;;;;;;0.10;0.10;;;5.20;99.90;;;;;;5082304;28;20013;-92
2021/05/12 03:44:13;;;;;;;0.10;0.10;;;5.20;99.90;;;;;;5092419;28;20024;-91
2021/05/12 03:46:39;;;;;;;0.10;0.10;;;5.20;99.90;;;;;;5089482;28;20065;-90
2021/05/12 03:49:20;;;;;;;0.00;0.00;;;5.20;99.90;;;;;;5075492;28;20439;-91
2021/05/12 03:51:57;;;;;;;0.10;0.10;;;5.20;99.90;;;;;;5051332;28;20029;-91
2021/05/12 03:54:25;;;;;;;0.10;0.10;;;5.30;99.90;;;;;;5090856;28;20028;-90
2021/05/12 03:56:51;;;;;;;0.00;0.00;;;5.30;99.90;;;;;;5086519;28;20077;-89
2021/05/12 03:59:16;;;;;;;0.00;0.00;;;5.20;99.90;;;;;;5074675;28;20500;-89
2021/05/12 04:01:42;;;;;;;0.05;0.05;;;5.20;99.90;;;;;;5068088;28;20440;-91
2021/05/12 04:04:10;;;;;;;0.00;0.00;;;5.30;99.90;;;;;;5079349;28;20483;-90
2021/05/12 04:06:38;;;;;;;0.03;0.03;;;5.30;1.00;;;;;;5065264;28;20036;-92
2021/05/12 04:09:04;;;;;;;0.47;0.47;;;5.30;1.00;;;;;;5075628;28;20448;-90
2021/05/12 04:11:29;;;;;;;0.10;0.10;;;5.20;1.00;;;;;;5050960;28;20066;-90
2021/05/12 04:13:55;;;;;;;0.00;0.00;;;5.20;1.00;;;;;;5085107;28;20020;-89
2021/05/12 04:16:21;;;;;;;0.10;0.10;;;5.20;41.60;;;;;;5069401;28;20035;-91
2021/05/12 04:18:46;;;;;;;2.03;0.68;;;5.30;99.90;;;;;;5068930;28;20488;-90
2021/05/12 04:21:12;;;;;;;0.00;0.00;;;5.20;99.90;;;;;;5072858;28;20118;-90
2021/05/12 04:23:38;;;;;;;0.10;0.10;;;5.10;99.90;;;;;;5058332;28;20119;-90
2021/05/12 04:26:04;;;;;;;1.45;0.73;;;5.20;99.90;;;;;;5048833;28;20025;-91
2021/05/12 04:28:30;;;;;;;0.10;0.10;;;5.20;99.90;;;;;;5088990;28;20095;-91
2021/05/12 04:30:55;;;;;;;0.30;0.30;;;5.20;1.00;;;;;;5090323;28;20030;-90
2021/05/12 04:33:21;;;;;;;0.08;0.08;;;5.10;1.00;;;;;;5080923;28;20024;-90
2021/05/12 04:35:47;;;;;;;0.10;0.10;;;5.10;37.00;;;;;;5072806;28;20034;-90
2021/05/12 04:38:13;;;;;;;0.03;0.03;;;5.20;99.90;;;;;;5075576;28;20101;-89
2021/05/12 04:40:38;;;;;;;0.00;0.00;;;5.30;99.90;;;;;;5079573;28;20032;-90
2021/05/12 04:43:04;;;;;;;0.10;0.10;;;5.30;99.90;;;;;;5067689;28;20024;-91
2021/05/12 04:45:30;;;;;;;0.08;0.08;;;5.50;99.90;;;;;;5062282;28;20036;-89
2021/05/12 04:47:56;;;;;;;0.10;0.10;;;5.60;99.90;;;;;;5077442;28;20041;-90
2021/05/12 04:50:35;;;;;;;0.00;0.00;;;5.70;99.90;;;;;;5067384;28;20042;-90
2021/05/12 04:53:07;;;;;;;0.00;0.00;;;5.40;36.10;;;;;;5076992;28;20028;-87
2021/05/12 04:55:33;;;;;;;1.17;0.50;;;5.40;1.00;;;;;;5077468;28;20032;-89
2021/05/12 04:57:59;;;;;;;0.53;0.53;;;5.70;1.00;;;;;;5066592;28;20070;-88
2021/05/12 05:00:26;;;;;;;0.00;0.00;;;6.20;1.00;;;;;;5071137;28;20073;-91
2021/05/12 05:02:53;;;;;;;0.00;0.00;;;6.70;99.90;;;;;;5072172;28;20055;-94
2021/05/12 05:05:19;;;;;;;0.15;0.15;;;7.00;99.90;;;;;;5069835;28;20027;-91
2021/05/12 05:07:45;;;;;;;0.10;0.10;;;6.50;99.90;;;;;;5086036;28;20046;-89
2021/05/12 05:10:11;;;;;;;0.23;0.23;;;6.10;50.00;;;;;;5080700;28;20052;-89
2021/05/12 05:12:37;;;;;;;0.00;0.00;;;6.00;39.50;;;;;;5069256;28;20404;-89
2021/05/12 05:15:04;;;;;;;0.15;0.15;;;6.00;24.40;;;;;;5073663;28;20037;-88
2021/05/12 05:17:31;;;;;;;0.20;0.20;;;6.50;2.20;;;;;;5073981;28;20498;-88
2021/05/12 05:19:58;;;;;;;0.10;0.10;;;6.90;1.00;;;;;;5079151;28;20042;-91
2021/05/12 05:22:25;;;;;;;0.00;0.00;;;8.00;99.90;;;;;;5087152;28;20042;-94
2021/05/12 05:24:52;;;;;;;0.20;0.20;;;7.20;99.90;;;;;;5072830;28;20031;-91
2021/05/12 05:27:18;;;;;;;0.00;0.00;;;7.50;99.90;;;;;;5071876;28;20043;-87
2021/05/12 05:29:43;;;;;;;0.00;0.00;;;8.30;99.90;;;;;;5072958;28;20029;-93
2021/05/12 05:32:12;;;;;;;0.10;0.10;;;8.20;99.90;;;;;;5079045;28;20024;-90
2021/05/12 05:34:44;;;;;;;0.10;0.10;;;8.10;99.90;;;;;;5082608;28;20158;-92
2021/05/12 05:37:10;;;;;;;0.10;0.10;;;7.70;99.90;;;;;;5074756;28;20036;-90
2021/05/12 05:39:36;;;;;;;0.00;0.00;;;8.80;99.90;;;;;;5071569;28;20025;-90
2021/05/12 05:42:07;;;;;;;0.20;0.20;;;10.70;99.90;;;;;;5083614;28;20157;-92
2021/05/12 05:44:33;;;;;;;0.10;0.10;;;11.60;99.90;;;;;;5072687;28;20135;-91
2021/05/12 05:47:00;;;;;;;0.10;0.10;;;10.50;99.90;;;;;;5081824;28;20176;-91
2021/05/12 05:49:27;;;;;;;0.10;0.10;;;9.90;99.90;;;;;;5070191;28;20040;-89
2021/05/12 05:51:53;;;;;;;1.70;1.20;;;9.50;99.90;;;;;;5079773;28;20032;-87
2021/05/12 05:54:20;;;;;;;0.10;0.10;;;9.00;99.90;;;;;;5076627;28;20753;-86
2021/05/12 05:56:46;;;;;;;0.05;0.05;;;8.70;99.90;;;;;;5072042;28;20039;-86
2021/05/12 05:59:12;;;;;;;0.10;0.10;;;8.60;99.90;;;;;;5088800;28;20023;-87
2021/05/12 06:01:39;;;;;;;1.15;0.65;;;9.00;99.90;;;;;;5064933;28;20267;-87
2021/05/12 06:04:05;;;;;;;0.30;0.30;;;8.60;99.90;;;;;;5069376;28;20140;-86
2021/05/12 06:06:30;;;;;;;2.78;1.85;;;8.60;99.90;;;;;;5072559;28;20392;-87
2021/05/12 06:08:56;;;;;;;0.10;0.10;;;8.40;99.90;;;;;;5068906;28;20032;-88
2021/05/12 06:11:22;;;;;;;0.10;0.10;;;8.80;99.90;;;;;;5077092;28;20156;-86
2021/05/12 06:13:49;;;;;;;0.10;0.10;;;8.80;99.90;;;;;;5070527;28;20052;-86
2021/05/12 06:16:16;;;;;;;0.43;0.43;;;9.30;99.90;;;;;;5079903;28;20044;-88
2021/05/12 06:18:44;;;;;;;0.10;0.10;;;9.50;99.90;;;;;;5081427;28;20031;-89
2021/05/12 06:21:11;;;;;;;4.68;0.88;;;9.50;99.90;;;;;;5063946;28;20025;-89
2021/05/12 06:23:38;;;;;;;;;;;9.80;99.90;;;;;;5062255;28;20009;-88
2021/05/12 06:26:12;;;;;;;0.10;0.10;;;9.70;99.90;;;;;;5075815;28;20290;-88
2021/05/12 06:28:38;;;;;;;0.82;0.80;;;9.60;99.90;;;;;;5073076;28;20105;-88
2021/05/12 06:31:04;;;;;;;0.10;0.10;;;9.30;99.90;;;;;;5056531;28;20033;-89
2021/05/12 06:33:30;;;;;;;0.10;0.10;;;9.30;99.90;;;;;;5062275;28;20044;-89
2021/05/12 06:35:56;;;;;;;0.10;0.10;;;9.30;99.90;;;;;;5054728;28;20047;-89
2021/05/12 06:38:21;;;;;;;0.45;0.45;;;9.10;99.90;;;;;;5058531;28;20093;-88
2021/05/12 06:40:48;;;;;;;0.10;0.10;;;9.00;99.90;;;;;;5056136;28;20024;-89
2021/05/12 06:43:13;;;;;;;0.10;0.10;;;8.90;99.90;;;;;;5054762;28;20025;-89
2021/05/12 06:45:39;;;;;;;0.20;0.20;;;9.20;99.90;;;;;;5056220;28;20275;-89
2021/05/12 06:48:06;;;;;;;0.10;0.10;;;9.30;99.90;;;;;;5068036;28;20021;-91
2021/05/12 06:50:32;;;;;;;0.10;0.10;;;9.50;99.90;;;;;;5064530;28;20066;-90
2021/05/12 06:52:58;;;;;;;0.10;0.10;;;9.60;99.90;;;;;;5083868;28;20072;-90
2021/05/12 06:55:25;;;;;;;1.77;0.80;;;10.10;99.90;;;;;;5074275;28;20033;-90
2021/05/12 06:57:51;;;;;;;0.10;0.10;;;10.70;99.90;;;;;;5060026;28;20040;-91
2021/05/12 07:00:19;;;;;;;0.05;0.05;;;13.50;99.90;;;;;;5056414;28;20013;-91
2021/05/12 07:02:45;;;;;;;0.30;0.30;;;16.30;99.90;;;;;;5060968;28;20078;-92
2021/05/12 07:05:15;;;;;;;2.17;0.68;;;13.80;99.90;;;;;;5075013;28;20556;-92
2021/05/12 07:07:44;;;;;;;0.03;0.03;;;15.00;99.90;;;;;;5076333;28;20833;-92
2021/05/12 07:10:11;;;;;;;0.10;0.10;;;16.10;99.90;;;;;;5075996;28;20044;-91
2021/05/12 07:12:38;;;;;;;0.10;0.10;;;15.20;99.90;;;;;;5063027;28;20031;-91
2021/05/12 07:15:04;;;;;;;;;;;14.50;99.90;;;;;;5067495;28;20031;-90
2021/05/12 07:17:30;;;;;;;0.00;0.00;;;13.50;99.90;;;;;;5074664;28;19919;-90
2021/05/12 07:19:56;;;;;;;0.30;0.30;;;13.00;99.90;;;;;;5071877;28;20037;-89
2021/05/12 07:22:23;;;;;;;1.07;0.57;;;11.90;99.90;;;;;;5082179;28;20039;-90
2021/05/12 07:24:49;;;;;;;0.10;0.10;;;11.00;99.90;;;;;;5073624;28;20274;-89
2021/05/12 07:27:16;;;;;;;1.15;0.65;;;11.20;99.90;;;;;;5073973;28;20052;-89
2021/05/12 07:29:41;;;;;;;1.58;1.40;;;11.30;99.90;;;;;;5073660;28;20040;-90
2021/05/12 07:32:08;;;;;;;0.47;0.47;;;11.20;99.90;;;;;;5076127;28;20025;-90
2021/05/12 07:34:34;;;;;;;0.60;0.50;;;10.80;99.90;;;;;;5075491;28;20106;-91
2021/05/12 07:37:00;;;;;;;1.33;1.23;;;11.00;99.90;;;;;;5062184;28;20090;-91
2021/05/12 07:39:29;;;;;;;0.47;0.47;;;10.90;99.90;;;;;;5066957;28;20136;-91
2021/05/12 07:41:59;;;;;;;0.20;0.20;;;11.00;99.90;;;;;;5062936;28;20017;-91
2021/05/12 07:44:25;;;;;;;0.88;0.75;;;11.60;99.90;;;;;;5073136;28;20038;-91
2021/05/12 07:46:51;;;;;;;0.10;0.10;;;12.00;99.90;;;;;;5070222;28;20028;-92
2021/05/12 07:49:17;;;;;;;0.10;0.10;;;12.50;99.90;;;;;;5071252;28;20077;-93
2021/05/12 07:51:43;;;;;;;0.13;0.13;;;12.80;99.90;;;;;;5088167;28;20526;-90
2021/05/12 07:54:09;;;;;;;9.47;2.27;;;11.40;99.90;;;;;;5066996;28;20032;-91
2021/05/12 07:56:35;;;;;;;0.00;0.00;;;11.30;99.90;;;;;;5059123;28;20283;-91
2021/05/12 07:59:01;;;;;;;0.32;0.20;;;11.80;99.90;;;;;;5062389;28;20039;-92
2021/05/12 08:01:30;;;;;;;0.10;0.10;;;12.30;99.90;;;;;;5064197;28;20032;-91
2021/05/12 08:03:56;;;;;;;0.10;0.10;;;12.50;99.90;;;;;;5089622;28;20024;-92
2021/05/12 08:06:22;;;;;;;0.30;0.30;;;12.20;99.90;;;;;;5073456;28;20025;-91
2021/05/12 08:08:48;;;;;;;0.10;0.10;;;11.90;99.90;;;;;;5074292;28;20044;-92
2021/05/12 08:11:14;;;;;;;0.40;0.40;;;11.80;99.90;;;;;;5068681;28;20141;-91
2021/05/12 08:13:40;;;;;;;0.28;0.28;;;11.70;99.90;;;;;;5072507;28;20789;-91
2021/05/12 08:16:06;;;;;;;0.10;0.10;;;12.10;99.90;;;;;;5068469;28;20024;-90
2021/05/12 08:18:32;;;;;;;0.10;0.10;;;12.30;99.90;;;;;;5061965;28;20484;-92
2021/05/12 08:20:58;;;;;;;0.10;0.10;;;12.30;99.90;;;;;;5064764;28;20033;-91
2021/05/12 08:23:25;;;;;;;0.40;0.40;;;11.80;99.90;;;;;;5066537;28;20017;-92
2021/05/12 08:25:51;;;;;;;0.10;0.10;;;11.90;99.90;;;;;;5068974;28;20700;-91
2021/05/12 08:28:18;;;;;;;0.73;0.73;;;12.40;99.90;;;;;;5064242;28;20071;-91
2021/05/12 08:30:46;;;;;;;0.10;0.10;;;12.50;99.90;;;;;;5067508;28;20023;-91
2021/05/12 08:33:16;;;;;;;0.10;0.10;;;12.20;99.90;;;;;;5060856;28;20436;-92
2021/05/12 08:35:44;;;;;;;0.85;0.63;;;12.40;99.90;;;;;;5069452;28;20074;-92
2021/05/12 08:38:13;;;;;;;0.10;0.10;;;11.90;99.90;;;;;;5086153;28;20035;-91
2021/05/12 08:40:42;;;;;;;0.63;0.63;;;11.30;99.90;;;;;;5069284;28;20119;-91
2021/05/12 08:43:08;;;;;;;0.20;0.20;;;11.20;99.90;;;;;;5068333;28;20682;-91
2021/05/12 08:45:35;;;;;;;0.20;0.20;;;11.90;99.90;;;;;;5070475;28;20032;-91
2021/05/12 08:48:05;;;;;;;0.10;0.10;;;11.80;99.90;;;;;;5076840;28;20064;-92
2021/05/12 08:50:32;;;;;;;0.20;0.20;;;12.40;99.90;;;;;;5083457;28;20510;-91
2021/05/12 08:52:59;;;;;;;0.10;0.10;;;12.20;99.90;;;;;;5075077;28;20488;-92
2021/05/12 08:55:25;;;;;;;0.10;0.10;;;12.10;99.90;;;;;;5076340;28;20037;-92
2021/05/12 08:57:51;;;;;;;0.82;0.25;;;12.00;99.90;;;;;;5070077;28;20692;-91
2021/05/12 09:00:17;;;;;;;0.10;0.10;;;12.10;99.90;;;;;;5082125;28;20123;-91
2021/05/12 09:02:44;;;;;;;0.10;0.10;;;11.90;99.90;;;;;;5084785;28;20032;-92
2021/05/12 09:05:10;;;;;;;0.00;0.00;;;11.90;99.90;;;;;;5086740;28;20046;-91
2021/05/12 09:07:36;;;;;;;0.25;0.25;;;11.60;99.90;;;;;;5076483;28;20020;-91
2021/05/12 09:10:03;;;;;;;0.20;0.20;;;11.30;99.90;;;;;;5082813;28;20499;-91
2021/05/12 09:12:46;;;;;;;0.80;0.63;;;11.50;99.90;;;;;;5074142;28;20025;-91
2021/05/12 09:15:17;;;;;;;0.10;0.10;;;11.40;99.90;;;;;;5075028;28;20028;-91
2021/05/12 09:17:48;;;;;;;0.40;0.40;;;11.90;99.90;;;;;;5088470;28;20464;-92
2021/05/12 09:20:21;;;;;;;0.40;0.40;;;11.80;99.90;;;;;;5075844;28;20016;-92
2021/05/12 09:23:07;;;;;;;0.10;0.10;;;12.50;99.90;;;;;;5084625;28;20085;-93
2021/05/12 09:25:36;;;;;;;0.10;0.10;;;13.20;99.90;;;;;;5086669;28;20658;-92
2021/05/12 09:28:11;;;;;;;0.10;0.10;;;13.40;99.90;;;;;;5085913;28;20099;-94
2021/05/12 09:30:38;;;;;;;0.30;0.30;;;13.30;99.90;;;;;;5088137;28;20050;-92
2021/05/12 09:33:05;;;;;;;;;;;14.00;99.90;;;;;;5091600;28;20056;-93
2021/05/12 09:35:32;;;;;;;0.10;0.10;;;13.70;99.90;;;;;;5077552;28;19909;-93
2021/05/12 09:37:57;;;;;;;0.10;0.10;;;14.00;99.90;;;;;;5076164;28;20027;-93
2021/05/12 09:40:24;;;;;;;0.10;0.10;;;13.40;99.90;;;;;;5075776;28;20396;-93
2021/05/12 09:42:58;;;;;;;0.20;0.20;;;12.90;99.90;;;;;;5075426;28;20502;-93
2021/05/12 09:45:25;;;;;;;0.45;0.30;;;12.80;99.90;;;;;;5081416;28;20032;-92
2021/05/12 09:47:58;;;;;;;;;;;12.80;99.90;;;;;;5083910;28;20103;-93
2021/05/12 09:50:27;;;;;;;0.10;0.10;;;13.20;99.90;;;;;;5085793;28;20387;-92
2021/05/12 09:53:02;;;;;;;0.00;0.00;;;13.40;99.90;;;;;;5077036;28;20030;-93
2021/05/12 09:55:42;;;;;;;0.55;0.55;;;14.00;99.90;;;;;;5095398;28;20035;-93
2021/05/12 09:58:14;;;;;;;0.45;0.43;;;13.60;99.90;;;;;;5095696;28;20028;-94
2021/05/12 10:00:42;;;;;;;0.10;0.10;;;13.90;99.90;;;;;;5095332;28;20541;-93
2021/05/12 10:03:11;;;;;;;0.30;0.30;;;14.40;99.90;;;;;;5095798;28;20020;-93
2021/05/12 10:05:57;;;;;;;0.00;0.00;;;14.30;99.90;;;;;;5087746;28;20372;-94
2021/05/12 10:08:31;;;;;;;0.10;0.10;;;14.70;99.90;;;;;;5085515;28;20498;-93
2021/05/12 10:10:58;;;;;;;0.47;0.47;;;14.40;99.90;;;;;;5075713;28;20404;-92
2021/05/12 10:13:25;;;;;;;1.65;0.75;;;15.00;99.90;;;;;;5074518;28;20442;-94
2021/05/12 10:15:51;;;;;;;;;;;15.90;99.90;;;;;;5076415;28;20153;-94
2021/05/12 10:18:17;;;;;;;0.00;0.00;;;16.20;99.90;;;;;;5085657;28;19915;-94
2021/05/12 10:20:43;;;;;;;0.10;0.10;;;16.40;99.90;;;;;;5085171;28;20024;-93
2021/05/12 10:23:09;;;;;;;0.70;0.30;;;17.10;99.90;;;;;;5075530;28;20031;-92
2021/05/12 10:25:39;;;;;;;0.10;0.10;;;16.80;99.90;;;;;;5081273;28;20031;-93
2021/05/12 10:28:07;;;;;;;0.00;0.00;;;16.50;99.90;;;;;;5082587;28;20059;-94
2021/05/12 10:30:33;;;;;;;0.20;0.20;;;16.10;99.90;;;;;;5090631;28;20071;-93
2021/05/12 10:32:59;;;;;;;0.05;0.05;;;16.30;99.90;;;;;;5094130;28;20114;-94
2021/05/12 10:35:39;;;;;;;0.20;0.20;;;15.80;99.90;;;;;;5095489;28;20081;-94
2021/05/12 10:38:29;;;;;;;0.30;0.30;;;16.10;99.90;;;;;;5054578;28;20508;-93
2021/05/12 10:40:55;;;;;;;0.00;0.00;;;17.30;99.90;;;;;;5056981;28;20525;-91
2021/05/12 10:43:28;;;;;;;0.00;0.00;;;19.50;99.90;;;;;;5091825;28;20055;-94
2021/05/12 10:46:43;;;;;;;4.03;0.20;;;20.50;99.90;;;;;;5057238;28;20032;-95
2021/05/12 10:49:08;;;;;;;0.70;0.70;;;20.30;99.90;;;;;;5111551;28;20031;-95
2021/05/12 10:51:45;;;;;;;0.10;0.10;;;20.70;99.90;;;;;;5098740;28;20112;-95
2021/05/12 10:54:11;;;;;;;0.20;0.20;;;20.30;99.90;;;;;;5097615;28;20028;-95
2021/05/12 10:56:43;;;;;;;0.28;0.28;;;21.70;99.90;;;;;;5100229;28;20097;-96
2021/05/12 10:59:10;;;;;;;0.10;0.10;;;26.10;99.90;;;;;;5100902;28;20020;-94
2021/05/12 11:01:42;;;;;;;2.17;1.08;;;25.10;99.90;;;;;;5100115;28;20021;-95
2021/05/12 11:04:10;;;;;;;2.20;0.52;;;23.30;99.90;;;;;;5098401;28;20024;-95
2021/05/12 11:06:39;;;;;;;0.15;0.15;;;22.90;99.90;;;;;;5101959;28;20050;-95
2021/05/12 11:09:09;;;;;;;0.00;0.00;;;21.00;99.90;;;;;;5105551;28;20032;-94
2021/05/12 11:11:44;;;;;;;1.85;0.30;;;18.50;99.90;;;;;;5103890;28;20044;-95
2021/05/12 11:14:36;;;;;;;0.00;0.00;;;18.90;99.90;;;;;;5104065;28;20372;-95
2021/05/12 11:17:14;;;;;;;0.00;0.00;;;18.90;99.90;;;;;;5105625;28;20035;-95
2021/05/12 11:19:45;;;;;;;0.10;0.10;;;19.00;99.90;;;;;;5102792;28;20025;-95
2021/05/12 11:22:38;;;;;;;0.00;0.00;;;17.80;99.90;;;;;;5098236;28;20035;-96
2021/05/12 11:28:59;;;;;;;0.00;0.00;;;18.50;99.90;;;;;;5103672;28;20161;-96
2021/05/12 11:31:28;;;;;;;0.10;0.10;;;20.20;99.90;;;;;;5098398;28;20113;-96
2021/05/12 11:33:54;;;;;;;0.00;0.00;;;20.60;99.90;;;;;;5098978;28;20027;-96
2021/05/12 11:36:25;;;;;;;;;;;20.60;99.90;;;;;;5096091;28;20012;-94
2021/05/12 11:42:53;;;;;;;10.00;0.40;;;21.70;99.90;;;;;;5098951;28;20027;-94
2021/05/12 11:48:59;;;;;;;0.00;0.00;;;21.60;98.00;;;;;;5104323;28;20035;-94
2021/05/12 11:54:47;;;;;;;0.00;0.00;;;20.00;99.10;;;;;;5100642;28;20022;-95
2021/05/12 11:57:15;;;;;;;0.00;0.00;;;19.10;99.60;;;;;;5097195;28;20096;-96
2021/05/12 12:03:12;;;;;;;0.08;0.08;;;16.90;99.90;;;;;;5103936;28;20024;-96
2021/05/12 12:05:50;;;;;;;0.10;0.10;;;15.50;99.90;;;;;;5107887;28;20490;-96
2021/05/12 12:08:18;;;;;;;0.08;0.08;;;15.10;99.90;;;;;;5097540;28;20038;-95
2021/05/12 12:10:44;;;;;;;0.10;0.10;;;14.90;99.90;;;;;;5094342;28;20499;-95
2021/05/12 12:13:13;;;;;;;0.10;0.10;;;14.80;99.90;;;;;;5094278;28;20035;-95
2021/05/12 12:15:47;;;;;;;0.00;0.00;;;15.10;99.90;;;;;;5094828;28;20152;-96
2021/05/12 12:18:24;;;;;;;0.20;0.20;;;15.70;99.90;;;;;;5091903;28;20174;-95
2021/05/12 12:20:50;;;;;;;0.45;0.45;;;17.00;99.90;;;;;;5097137;28;20114;-95
2021/05/12 12:23:32;;;;;;;0.23;0.23;;;17.20;99.90;;;;;;5096363;28;20056;-96
2021/05/12 12:26:16;;;;;;;0.00;0.00;;;17.00;99.90;;;;;;5094183;28;20023;-95
2021/05/12 12:29:03;;;;;;;0.10;0.10;;;17.20;99.90;;;;;;5093971;28;20024;-96
2021/05/12 12:34:59;;;;;;;0.15;0.15;;;19.90;99.90;;;;;;5097050;28;20035;-95
2021/05/12 12:41:23;;;;;;;0.35;0.13;;;19.90;99.90;;;;;;5095290;28;20026;-95
2021/05/12 12:43:51;;;;;;;0.10;0.10;;;19.90;98.80;;;;;;5094205;28;20024;-95
2021/05/12 12:46:27;;;;;;;0.00;0.00;;;19.00;99.90;;;;;;5093178;28;20020;-96
2021/05/12 12:48:53;;;;;;;0.00;0.00;;;17.20;99.90;;;;;;5091959;28;20024;-93
2021/05/12 12:51:42;;;;;;;0.00;0.00;;;17.90;99.90;;;;;;5093592;28;20579;-95
2021/05/12 12:54:08;;;;;;;0.05;0.05;;;18.10;99.90;;;;;;5093107;28;20036;-95
2021/05/12 12:56:34;;;;;;;0.00;0.00;;;19.10;99.90;;;;;;5093140;28;20051;-95
2021/05/12 12:59:08;;;;;;;0.00;0.00;;;19.60;98.60;;;;;;5093522;28;20027;-94
2021/05/12 13:01:38;;;;;;;0.10;0.10;;;19.70;98.80;;;;;;5092578;28;20558;-95
2021/05/12 13:04:20;;;;;;;0.00;0.00;;;18.30;99.90;;;;;;5093183;28;20419;-94
2021/05/12 13:07:02;;;;;;;1.25;0.68;;;18.70;99.80;;;;;;5093738;28;20028;-96
2021/05/12 13:12:57;;;;;;;0.00;0.00;;;19.10;99.10;;;;;;5084414;28;20051;-94
2021/05/12 13:15:34;;;;;;;0.10;0.10;;;18.10;98.80;;;;;;5092945;28;20054;-95
2021/05/12 13:18:04;;;;;;;0.00;0.00;;;17.50;99.00;;;;;;5092478;28;20039;-95
2021/05/12 13:20:32;;;;;;;0.10;0.10;;;17.80;99.20;;;;;;5092592;28;20012;-93
2021/05/12 13:23:22;;;;;;;0.00;0.00;;;17.70;99.30;;;;;;5074329;28;20024;-93
2021/05/12 13:26:03;;;;;;;0.00;0.00;;;17.40;99.80;;;;;;5073586;28;20465;-94
2021/05/12 13:28:34;;;;;;;0.10;0.10;;;17.70;99.90;;;;;;5071226;28;20025;-93
2021/05/12 13:31:01;;;;;;;0.10;0.10;;;17.20;99.30;;;;;;5072658;28;20028;-94
2021/05/12 13:33:28;;;;;;;0.10;0.10;;;17.20;99.90;;;;;;5072075;28;20028;-94
2021/05/12 13:35:59;;;;;;;0.20;0.20;;;17.40;99.30;;;;;;5072195;28;20030;-94